sensor_id;sensor_type;location;lat;lon;timestamp;P1;durP1;ratioP1;P2;durP2;ratioP2
2452;SDS011;63678;47.994;7.854;2024-03-23T00:55:41;7.13;;;3.22;;
2452;SDS011;63678;47.994;7.854;2024-03-23T00:58:13;6.22;;;2.67;;
2452;SDS011;63678;47.994;7.854;2024-03-23T01:00:44;5.63;;;2.83;;
2452;SDS011;63678;47.994;7.854;2024-03-23T01:03:16;7.40;;;2.75;;
2452;SDS011;63678;47.994;7.854;2024-03-23T01:05:47;6.07;;;2.93;;
2452;SDS011;63678;47.994;7.854;2024-03-23T01:08:19;8.55;;;2.90;;
2452;SDS011;63678;47.994;7.854;2024-03-23T01:10:54;5.43;;;2.80;;
2452;SDS011;63678;47.994;7.854;2024-03-23T01:13:30;4.47;;;2.80;;
2452;SDS011;63678;47.994;7.854;2024-03-23T01:16:01;7.53;;;3.10;;
2452;SDS011;63678;47.994;7.854;2024-03-23T01:18:33;7.67;;;3.10;;
2452;SDS011;63678;47.994;7.854;2024-03-23T01:21:05;5.70;;;3.15;;
2452;SDS011;63678;47.994;7.854;2024-03-23T01:23:36;5.00;;;2.97;;
2452;SDS011;63678;47.994;7.854;2024-03-23T01:26:07;4.93;;;2.90;;
2452;SDS011;63678;47.994;7.854;2024-03-23T01:28:39;7.68;;;2.95;;
2452;SDS011;63678;47.994;7.854;2024-03-23T01:31:10;4.63;;;3.00;;
2452;SDS011;63678;47.994;7.854;2024-03-23T01:33:41;5.82;;;3.22;;
2452;SDS011;63678;47.994;7.854;2024-03-23T01:36:13;7.32;;;3.20;;
2452;SDS011;63678;47.994;7.854;2024-03-23T01:38:44;7.63;;;3.00;;
2452;SDS011;63678;47.994;7.854;2024-03-23T01:41:16;5.00;;;3.30;;
2452;SDS011;63678;47.994;7.854;2024-03-23T01:43:47;6.30;;;3.33;;
2452;SDS011;63678;47.994;7.854;2024-03-23T01:46:18;5.20;;;2.90;;
2452;SDS011;63678;47.994;7.854;2024-03-23T01:48:50;6.38;;;3.08;;
2452;SDS011;63678;47.994;7.854;2024-03-23T01:51:21;5.97;;;3.25;;
2452;SDS011;63678;47.994;7.854;2024-03-23T01:53:54;6.25;;;3.35;;
2452;SDS011;63678;47.994;7.854;2024-03-23T01:56:27;5.27;;;2.90;;
2452;SDS011;63678;47.994;7.854;2024-03-23T01:58:58;6.75;;;3.33;;
2452;SDS011;63678;47.994;7.854;2024-03-23T02:01:29;5.88;;;3.03;;
2452;SDS011;63678;47.994;7.854;2024-03-23T02:04:01;6.32;;;3.42;;
2452;SDS011;63678;47.994;7.854;2024-03-23T02:06:33;8.25;;;3.75;;
2452;SDS011;63678;47.994;7.854;2024-03-23T02:09:04;6.17;;;3.20;;
2452;SDS011;63678;47.994;7.854;2024-03-23T02:11:36;6.88;;;3.03;;
2452;SDS011;63678;47.994;7.854;2024-03-23T02:14:07;5.90;;;3.15;;
2452;SDS011;63678;47.994;7.854;2024-03-23T02:16:39;5.85;;;3.15;;
2452;SDS011;63678;47.994;7.854;2024-03-23T02:19:10;7.30;;;3.38;;
2452;SDS011;63678;47.994;7.854;2024-03-23T02:21:42;5.13;;;3.00;;
2452;SDS011;63678;47.994;7.854;2024-03-23T02:24:14;8.77;;;3.60;;
2452;SDS011;63678;47.994;7.854;2024-03-23T02:26:45;6.18;;;2.83;;
2452;SDS011;63678;47.994;7.854;2024-03-23T02:29:18;6.13;;;3.00;;
2452;SDS011;63678;47.994;7.854;2024-03-23T02:31:50;6.53;;;3.22;;
2452;SDS011;63678;47.994;7.854;2024-03-23T02:34:21;6.60;;;2.70;;
2452;SDS011;63678;47.994;7.854;2024-03-23T02:36:53;5.32;;;2.78;;
2452;SDS011;63678;47.994;7.854;2024-03-23T02:39:24;7.40;;;3.75;;
2452;SDS011;63678;47.994;7.854;2024-03-23T02:41:55;7.45;;;3.42;;
2452;SDS011;63678;47.994;7.854;2024-03-23T02:44:27;5.80;;;2.92;;
2452;SDS011;63678;47.994;7.854;2024-03-23T02:46:58;7.60;;;3.70;;
2452;SDS011;63678;47.994;7.854;2024-03-23T02:49:29;6.70;;;3.22;;
2452;SDS011;63678;47.994;7.854;2024-03-23T02:52:01;7.03;;;3.95;;
2452;SDS011;63678;47.994;7.854;2024-03-23T02:54:32;6.35;;;3.38;;
2452;SDS011;63678;47.994;7.854;2024-03-23T02:57:03;5.88;;;3.70;;
2452;SDS011;63678;47.994;7.854;2024-03-23T02:59:35;6.07;;;3.40;;
2452;SDS011;63678;47.994;7.854;2024-03-23T03:02:06;6.05;;;3.15;;
2452;SDS011;63678;47.994;7.854;2024-03-23T03:04:38;5.38;;;3.30;;
2452;SDS011;63678;47.994;7.854;2024-03-23T03:07:09;8.65;;;3.25;;
2452;SDS011;63678;47.994;7.854;2024-03-23T03:09:40;6.80;;;3.70;;
2452;SDS011;63678;47.994;7.854;2024-03-23T03:12:12;5.27;;;3.13;;
2452;SDS011;63678;47.994;7.854;2024-03-23T03:14:43;6.63;;;3.33;;
2452;SDS011;63678;47.994;7.854;2024-03-23T03:17:15;8.00;;;3.92;;
2452;SDS011;63678;47.994;7.854;2024-03-23T03:19:46;7.97;;;3.38;;
2452;SDS011;63678;47.994;7.854;2024-03-23T03:22:18;6.28;;;3.13;;
2452;SDS011;63678;47.994;7.854;2024-03-23T03:24:50;6.33;;;3.47;;
2452;SDS011;63678;47.994;7.854;2024-03-23T03:27:21;6.78;;;3.42;;
2452;SDS011;63678;47.994;7.854;2024-03-23T03:29:53;8.77;;;3.40;;
2452;SDS011;63678;47.994;7.854;2024-03-23T03:32:24;7.18;;;2.85;;
2452;SDS011;63678;47.994;7.854;2024-03-23T03:34:56;8.73;;;3.10;;
2452;SDS011;63678;47.994;7.854;2024-03-23T03:37:27;5.47;;;2.53;;
2452;SDS011;63678;47.994;7.854;2024-03-23T03:39:58;6.50;;;3.53;;
2452;SDS011;63678;47.994;7.854;2024-03-23T03:42:29;10.40;;;3.40;;
2452;SDS011;63678;47.994;7.854;2024-03-23T03:45:01;6.30;;;3.35;;
2452;SDS011;63678;47.994;7.854;2024-03-23T03:47:35;7.50;;;3.63;;
2452;SDS011;63678;47.994;7.854;2024-03-23T03:50:06;6.83;;;3.60;;
2452;SDS011;63678;47.994;7.854;2024-03-23T03:52:37;7.40;;;3.13;;
2452;SDS011;63678;47.994;7.854;2024-03-23T03:55:15;7.55;;;3.50;;
2452;SDS011;63678;47.994;7.854;2024-03-23T03:57:47;5.82;;;3.17;;
2452;SDS011;63678;47.994;7.854;2024-03-23T04:00:18;6.90;;;3.40;;
2452;SDS011;63678;47.994;7.854;2024-03-23T04:02:50;10.50;;;3.30;;
2452;SDS011;63678;47.994;7.854;2024-03-23T04:05:22;6.65;;;3.72;;
2452;SDS011;63678;47.994;7.854;2024-03-23T04:07:53;6.32;;;3.53;;
2452;SDS011;63678;47.994;7.854;2024-03-23T04:10:24;8.73;;;3.85;;
2452;SDS011;63678;47.994;7.854;2024-03-23T04:12:57;8.88;;;4.10;;
2452;SDS011;63678;47.994;7.854;2024-03-23T04:15:28;7.73;;;3.90;;
2452;SDS011;63678;47.994;7.854;2024-03-23T04:17:59;7.28;;;3.50;;
2452;SDS011;63678;47.994;7.854;2024-03-23T04:20:31;7.70;;;3.50;;
2452;SDS011;63678;47.994;7.854;2024-03-23T04:23:02;6.07;;;3.75;;
2452;SDS011;63678;47.994;7.854;2024-03-23T04:25:34;7.80;;;4.10;;
2452;SDS011;63678;47.994;7.854;2024-03-23T04:28:06;11.43;;;3.70;;
2452;SDS011;63678;47.994;7.854;2024-03-23T04:30:37;10.20;;;4.30;;
2452;SDS011;63678;47.994;7.854;2024-03-23T04:33:09;12.93;;;3.88;;
2452;SDS011;63678;47.994;7.854;2024-03-23T04:35:41;8.32;;;4.10;;
2452;SDS011;63678;47.994;7.854;2024-03-23T04:38:12;6.97;;;3.97;;
2452;SDS011;63678;47.994;7.854;2024-03-23T04:40:43;7.53;;;4.10;;
2452;SDS011;63678;47.994;7.854;2024-03-23T04:43:15;8.82;;;4.20;;
2452;SDS011;63678;47.994;7.854;2024-03-23T04:45:46;10.65;;;4.60;;
2452;SDS011;63678;47.994;7.854;2024-03-23T04:48:21;10.35;;;5.03;;
2452;SDS011;63678;47.994;7.854;2024-03-23T04:50:57;7.32;;;4.90;;
2452;SDS011;63678;47.994;7.854;2024-03-23T04:53:29;8.40;;;3.93;;
2452;SDS011;63678;47.994;7.854;2024-03-23T04:56:00;6.78;;;4.35;;
2452;SDS011;63678;47.994;7.854;2024-03-23T04:58:32;8.80;;;5.18;;
2452;SDS011;63678;47.994;7.854;2024-03-23T05:01:04;7.82;;;4.85;;
2452;SDS011;63678;47.994;7.854;2024-03-23T05:03:35;8.75;;;4.88;;
2452;SDS011;63678;47.994;7.854;2024-03-23T05:06:06;7.83;;;4.93;;
2452;SDS011;63678;47.994;7.854;2024-03-23T05:08:38;12.00;;;5.38;;
2452;SDS011;63678;47.994;7.854;2024-03-23T05:11:09;8.88;;;5.40;;
2452;SDS011;63678;47.994;7.854;2024-03-23T05:13:41;10.80;;;5.30;;
2452;SDS011;63678;47.994;7.854;2024-03-23T05:16:13;14.50;;;5.35;;
2452;SDS011;63678;47.994;7.854;2024-03-23T05:18:44;10.97;;;5.80;;
2452;SDS011;63678;47.994;7.854;2024-03-23T05:21:34;8.90;;;5.22;;
2452;SDS011;63678;47.994;7.854;2024-03-23T05:24:05;9.27;;;5.80;;
2452;SDS011;63678;47.994;7.854;2024-03-23T05:26:36;8.18;;;5.00;;
2452;SDS011;63678;47.994;7.854;2024-03-23T05:29:08;9.70;;;5.13;;
2452;SDS011;63678;47.994;7.854;2024-03-23T05:31:44;8.27;;;5.63;;
2452;SDS011;63678;47.994;7.854;2024-03-23T05:34:15;8.95;;;5.18;;
2452;SDS011;63678;47.994;7.854;2024-03-23T05:36:46;7.97;;;4.53;;
2452;SDS011;63678;47.994;7.854;2024-03-23T05:39:19;9.32;;;5.07;;
2452;SDS011;63678;47.994;7.854;2024-03-23T05:41:52;9.00;;;4.85;;
2452;SDS011;63678;47.994;7.854;2024-03-23T05:44:24;11.13;;;4.90;;
2452;SDS011;63678;47.994;7.854;2024-03-23T05:46:55;8.20;;;5.35;;
2452;SDS011;63678;47.994;7.854;2024-03-23T05:49:26;10.25;;;5.18;;
2452;SDS011;63678;47.994;7.854;2024-03-23T05:51:58;8.25;;;5.18;;
2452;SDS011;63678;47.994;7.854;2024-03-23T05:54:29;8.52;;;5.10;;
2452;SDS011;63678;47.994;7.854;2024-03-23T05:57:01;9.07;;;5.33;;
2452;SDS011;63678;47.994;7.854;2024-03-23T05:59:33;9.27;;;5.03;;
2452;SDS011;63678;47.994;7.854;2024-03-23T06:02:05;9.27;;;5.47;;
2452;SDS011;63678;47.994;7.854;2024-03-23T06:04:36;11.32;;;5.85;;
2452;SDS011;63678;47.994;7.854;2024-03-23T06:07:08;8.80;;;5.68;;
2452;SDS011;63678;47.994;7.854;2024-03-23T06:09:44;9.23;;;5.77;;
2452;SDS011;63678;47.994;7.854;2024-03-23T06:12:15;8.95;;;5.45;;
2452;SDS011;63678;47.994;7.854;2024-03-23T06:14:47;10.88;;;5.53;;
2452;SDS011;63678;47.994;7.854;2024-03-23T06:17:20;7.57;;;4.50;;
2452;SDS011;63678;47.994;7.854;2024-03-23T06:19:51;7.03;;;3.85;;
2452;SDS011;63678;47.994;7.854;2024-03-23T06:22:22;8.17;;;4.20;;
2452;SDS011;63678;47.994;7.854;2024-03-23T06:24:54;8.38;;;4.28;;
2452;SDS011;63678;47.994;7.854;2024-03-23T06:27:26;7.43;;;4.55;;
2452;SDS011;63678;47.994;7.854;2024-03-23T06:29:57;6.57;;;3.72;;
2452;SDS011;63678;47.994;7.854;2024-03-23T06:32:30;5.25;;;2.72;;
2452;SDS011;63678;47.994;7.854;2024-03-23T06:35:01;5.33;;;2.80;;
2452;SDS011;63678;47.994;7.854;2024-03-23T06:37:38;4.13;;;1.95;;
2452;SDS011;63678;47.994;7.854;2024-03-23T06:40:11;4.00;;;2.20;;
2452;SDS011;63678;47.994;7.854;2024-03-23T06:42:43;3.53;;;1.92;;
2452;SDS011;63678;47.994;7.854;2024-03-23T06:45:14;3.75;;;1.55;;
2452;SDS011;63678;47.994;7.854;2024-03-23T06:47:47;3.23;;;1.30;;
2452;SDS011;63678;47.994;7.854;2024-03-23T06:50:20;3.40;;;1.50;;
2452;SDS011;63678;47.994;7.854;2024-03-23T06:52:52;3.10;;;1.45;;
2452;SDS011;63678;47.994;7.854;2024-03-23T06:55:23;3.17;;;1.50;;
2452;SDS011;63678;47.994;7.854;2024-03-23T06:57:57;4.18;;;1.48;;
2452;SDS011;63678;47.994;7.854;2024-03-23T07:00:28;3.20;;;1.40;;
2452;SDS011;63678;47.994;7.854;2024-03-23T07:02:59;3.58;;;1.70;;
2452;SDS011;63678;47.994;7.854;2024-03-23T07:05:32;3.10;;;1.70;;
2452;SDS011;63678;47.994;7.854;2024-03-23T07:08:03;3.08;;;1.52;;
2452;SDS011;63678;47.994;7.854;2024-03-23T07:10:35;3.97;;;1.52;;
2452;SDS011;63678;47.994;7.854;2024-03-23T07:13:10;3.80;;;1.47;;
2452;SDS011;63678;47.994;7.854;2024-03-23T07:15:41;3.70;;;1.67;;
2452;SDS011;63678;47.994;7.854;2024-03-23T07:18:13;3.17;;;1.40;;
2452;SDS011;63678;47.994;7.854;2024-03-23T07:20:57;3.80;;;1.58;;
2452;SDS011;63678;47.994;7.854;2024-03-23T07:23:28;3.53;;;1.90;;
2452;SDS011;63678;47.994;7.854;2024-03-23T07:26:01;3.93;;;1.50;;
2452;SDS011;63678;47.994;7.854;2024-03-23T07:28:35;3.00;;;1.65;;
2452;SDS011;63678;47.994;7.854;2024-03-23T07:31:08;3.50;;;1.73;;
2452;SDS011;63678;47.994;7.854;2024-03-23T07:33:41;3.20;;;1.40;;
2452;SDS011;63678;47.994;7.854;2024-03-23T07:36:16;3.03;;;1.45;;
2452;SDS011;63678;47.994;7.854;2024-03-23T07:38:47;2.97;;;1.40;;
2452;SDS011;63678;47.994;7.854;2024-03-23T07:41:19;4.45;;;1.40;;
2452;SDS011;63678;47.994;7.854;2024-03-23T07:43:51;2.92;;;1.38;;
2452;SDS011;63678;47.994;7.854;2024-03-23T07:46:23;4.10;;;1.50;;
2452;SDS011;63678;47.994;7.854;2024-03-23T07:48:55;3.00;;;1.45;;
2452;SDS011;63678;47.994;7.854;2024-03-23T07:51:27;3.07;;;1.40;;
2452;SDS011;63678;47.994;7.854;2024-03-23T07:53:58;3.42;;;1.50;;
2452;SDS011;63678;47.994;7.854;2024-03-23T07:56:30;3.10;;;1.60;;
2452;SDS011;63678;47.994;7.854;2024-03-23T07:59:01;3.08;;;1.40;;
2452;SDS011;63678;47.994;7.854;2024-03-23T08:01:34;2.97;;;1.50;;
2452;SDS011;63678;47.994;7.854;2024-03-23T08:04:05;4.73;;;1.50;;
2452;SDS011;63678;47.994;7.854;2024-03-23T08:06:37;3.20;;;1.30;;
2452;SDS011;63678;47.994;7.854;2024-03-23T08:09:09;4.47;;;1.95;;
2452;SDS011;63678;47.994;7.854;2024-03-23T08:11:40;4.53;;;1.75;;
2452;SDS011;63678;47.994;7.854;2024-03-23T08:14:14;3.97;;;1.80;;
2452;SDS011;63678;47.994;7.854;2024-03-23T08:16:46;5.60;;;1.97;;
2452;SDS011;63678;47.994;7.854;2024-03-23T08:19:19;5.72;;;2.00;;
2452;SDS011;63678;47.994;7.854;2024-03-23T08:21:51;5.25;;;1.90;;
2452;SDS011;63678;47.994;7.854;2024-03-23T08:24:24;6.50;;;2.10;;
2452;SDS011;63678;47.994;7.854;2024-03-23T08:26:56;5.10;;;2.50;;
2452;SDS011;63678;47.994;7.854;2024-03-23T08:29:27;4.77;;;2.33;;
2452;SDS011;63678;47.994;7.854;2024-03-23T08:31:59;6.22;;;2.38;;
2452;SDS011;63678;47.994;7.854;2024-03-23T08:34:31;6.32;;;2.35;;
2452;SDS011;63678;47.994;7.854;2024-03-23T08:37:02;7.55;;;2.45;;
2452;SDS011;63678;47.994;7.854;2024-03-23T08:39:34;6.55;;;2.30;;
2452;SDS011;63678;47.994;7.854;2024-03-23T08:42:07;6.87;;;2.30;;
2452;SDS011;63678;47.994;7.854;2024-03-23T08:44:41;17.85;;;6.70;;
2452;SDS011;63678;47.994;7.854;2024-03-23T08:47:14;8.05;;;3.22;;
2452;SDS011;63678;47.994;7.854;2024-03-23T08:49:48;8.13;;;2.97;;
2452;SDS011;63678;47.994;7.854;2024-03-23T08:52:20;8.80;;;3.80;;
2452;SDS011;63678;47.994;7.854;2024-03-23T08:54:53;7.77;;;2.50;;
2452;SDS011;63678;47.994;7.854;2024-03-23T08:57:26;11.82;;;4.38;;
2452;SDS011;63678;47.994;7.854;2024-03-23T08:59:58;9.50;;;3.47;;
2452;SDS011;63678;47.994;7.854;2024-03-23T09:02:30;11.52;;;3.97;;
2452;SDS011;63678;47.994;7.854;2024-03-23T09:05:01;7.03;;;2.88;;
2452;SDS011;63678;47.994;7.854;2024-03-23T09:07:35;11.57;;;4.77;;
2452;SDS011;63678;47.994;7.854;2024-03-23T09:10:06;10.15;;;3.22;;
2452;SDS011;63678;47.994;7.854;2024-03-23T09:12:38;7.55;;;2.90;;
2452;SDS011;63678;47.994;7.854;2024-03-23T09:15:10;10.38;;;2.70;;
2452;SDS011;63678;47.994;7.854;2024-03-23T09:17:42;10.73;;;3.42;;
2452;SDS011;63678;47.994;7.854;2024-03-23T09:20:13;10.33;;;3.60;;
2452;SDS011;63678;47.994;7.854;2024-03-23T09:22:44;7.80;;;3.35;;
2452;SDS011;63678;47.994;7.854;2024-03-23T09:25:18;7.68;;;3.30;;
2452;SDS011;63678;47.994;7.854;2024-03-23T09:27:50;12.65;;;3.63;;
2452;SDS011;63678;47.994;7.854;2024-03-23T09:30:21;10.02;;;4.07;;
2452;SDS011;63678;47.994;7.854;2024-03-23T09:32:53;9.97;;;3.40;;
2452;SDS011;63678;47.994;7.854;2024-03-23T09:35:24;8.90;;;3.20;;
2452;SDS011;63678;47.994;7.854;2024-03-23T09:37:56;7.97;;;2.97;;
2452;SDS011;63678;47.994;7.854;2024-03-23T09:40:27;8.52;;;3.10;;
2452;SDS011;63678;47.994;7.854;2024-03-23T09:42:59;10.65;;;3.30;;
2452;SDS011;63678;47.994;7.854;2024-03-23T09:45:30;7.07;;;2.67;;
2452;SDS011;63678;47.994;7.854;2024-03-23T09:48:08;6.05;;;2.42;;
2452;SDS011;63678;47.994;7.854;2024-03-23T09:50:41;9.77;;;2.63;;
2452;SDS011;63678;47.994;7.854;2024-03-23T09:53:14;5.75;;;2.10;;
2452;SDS011;63678;47.994;7.854;2024-03-23T09:55:45;7.22;;;2.60;;
2452;SDS011;63678;47.994;7.854;2024-03-23T09:58:17;7.17;;;2.20;;
2452;SDS011;63678;47.994;7.854;2024-03-23T10:00:49;5.82;;;2.13;;
2452;SDS011;63678;47.994;7.854;2024-03-23T10:03:21;6.75;;;2.25;;
2452;SDS011;63678;47.994;7.854;2024-03-23T10:06:00;5.38;;;2.17;;
2452;SDS011;63678;47.994;7.854;2024-03-23T10:08:33;6.53;;;2.58;;
2452;SDS011;63678;47.994;7.854;2024-03-23T10:11:12;5.83;;;2.10;;
2452;SDS011;63678;47.994;7.854;2024-03-23T10:13:49;7.88;;;2.08;;
2452;SDS011;63678;47.994;7.854;2024-03-23T10:16:21;7.30;;;2.65;;
2452;SDS011;63678;47.994;7.854;2024-03-23T10:18:54;9.25;;;3.13;;
2452;SDS011;63678;47.994;7.854;2024-03-23T10:21:26;8.60;;;2.30;;
2452;SDS011;63678;47.994;7.854;2024-03-23T10:23:58;10.13;;;2.70;;
2452;SDS011;63678;47.994;7.854;2024-03-23T10:26:39;8.57;;;2.65;;
2452;SDS011;63678;47.994;7.854;2024-03-23T10:29:11;6.25;;;2.33;;
2452;SDS011;63678;47.994;7.854;2024-03-23T10:31:43;8.55;;;2.45;;
2452;SDS011;63678;47.994;7.854;2024-03-23T10:34:14;8.40;;;2.60;;
2452;SDS011;63678;47.994;7.854;2024-03-23T10:36:45;7.87;;;2.67;;
2452;SDS011;63678;47.994;7.854;2024-03-23T10:39:17;6.68;;;2.65;;
2452;SDS011;63678;47.994;7.854;2024-03-23T10:41:49;9.30;;;2.85;;
2452;SDS011;63678;47.994;7.854;2024-03-23T10:44:23;6.20;;;2.38;;
2452;SDS011;63678;47.994;7.854;2024-03-23T10:46:58;10.27;;;2.45;;
2452;SDS011;63678;47.994;7.854;2024-03-23T10:49:34;4.53;;;2.00;;
2452;SDS011;63678;47.994;7.854;2024-03-23T10:52:06;6.38;;;2.45;;
2452;SDS011;63678;47.994;7.854;2024-03-23T10:54:38;6.75;;;2.28;;
2452;SDS011;63678;47.994;7.854;2024-03-23T10:57:16;4.80;;;2.08;;
2452;SDS011;63678;47.994;7.854;2024-03-23T10:59:52;5.75;;;2.65;;
2452;SDS011;63678;47.994;7.854;2024-03-23T11:02:24;5.63;;;1.93;;
2452;SDS011;63678;47.994;7.854;2024-03-23T11:04:58;4.47;;;2.10;;
2452;SDS011;63678;47.994;7.854;2024-03-23T11:07:30;5.60;;;2.30;;
2452;SDS011;63678;47.994;7.854;2024-03-23T11:10:02;4.32;;;2.00;;
2452;SDS011;63678;47.994;7.854;2024-03-23T11:16:16;5.43;;;2.27;;
2452;SDS011;63678;47.994;7.854;2024-03-23T11:19:33;5.32;;;2.03;;
2452;SDS011;63678;47.994;7.854;2024-03-23T11:22:07;8.02;;;2.95;;
2452;SDS011;63678;47.994;7.854;2024-03-23T11:24:39;6.78;;;2.60;;
2452;SDS011;63678;47.994;7.854;2024-03-23T11:27:16;5.40;;;2.22;;
2452;SDS011;63678;47.994;7.854;2024-03-23T11:29:48;7.40;;;2.67;;
2452;SDS011;63678;47.994;7.854;2024-03-23T11:32:19;6.25;;;2.30;;
2452;SDS011;63678;47.994;7.854;2024-03-23T11:34:52;7.00;;;2.65;;
2452;SDS011;63678;47.994;7.854;2024-03-23T11:37:23;9.55;;;2.25;;
2452;SDS011;63678;47.994;7.854;2024-03-23T11:40:17;4.90;;;2.10;;
2452;SDS011;63678;47.994;7.854;2024-03-23T11:42:55;5.30;;;1.90;;
2452;SDS011;63678;47.994;7.854;2024-03-23T11:45:27;7.18;;;2.50;;
2452;SDS011;63678;47.994;7.854;2024-03-23T11:48:06;6.28;;;2.50;;
2452;SDS011;63678;47.994;7.854;2024-03-23T11:50:46;4.00;;;2.03;;
2452;SDS011;63678;47.994;7.854;2024-03-23T11:53:22;4.82;;;2.13;;
2452;SDS011;63678;47.994;7.854;2024-03-23T11:55:58;6.20;;;2.50;;
2452;SDS011;63678;47.994;7.854;2024-03-23T11:58:31;6.00;;;2.20;;
2452;SDS011;63678;47.994;7.854;2024-03-23T12:01:03;6.70;;;2.80;;
2452;SDS011;63678;47.994;7.854;2024-03-23T12:03:35;6.47;;;2.30;;
2452;SDS011;63678;47.994;7.854;2024-03-23T12:06:07;8.35;;;2.50;;
2452;SDS011;63678;47.994;7.854;2024-03-23T12:08:38;4.20;;;1.97;;
2452;SDS011;63678;47.994;7.854;2024-03-23T12:11:11;5.60;;;2.00;;
2452;SDS011;63678;47.994;7.854;2024-03-23T12:13:45;5.07;;;1.75;;
2452;SDS011;63678;47.994;7.854;2024-03-23T12:16:20;6.07;;;2.75;;
2452;SDS011;63678;47.994;7.854;2024-03-23T12:18:52;6.93;;;2.28;;
2452;SDS011;63678;47.994;7.854;2024-03-23T12:21:23;7.97;;;1.83;;
2452;SDS011;63678;47.994;7.854;2024-03-23T12:23:55;5.40;;;2.20;;
2452;SDS011;63678;47.994;7.854;2024-03-23T12:26:27;6.72;;;2.92;;
2452;SDS011;63678;47.994;7.854;2024-03-23T12:28:58;5.93;;;2.03;;
2452;SDS011;63678;47.994;7.854;2024-03-23T12:31:30;6.90;;;2.25;;
2452;SDS011;63678;47.994;7.854;2024-03-23T12:34:02;5.60;;;1.97;;
2452;SDS011;63678;47.994;7.854;2024-03-23T12:36:34;8.02;;;2.58;;
2452;SDS011;63678;47.994;7.854;2024-03-23T12:39:05;6.82;;;2.65;;
2452;SDS011;63678;47.994;7.854;2024-03-23T12:41:37;7.05;;;2.80;;
2452;SDS011;63678;47.994;7.854;2024-03-23T12:44:09;8.88;;;2.17;;
2452;SDS011;63678;47.994;7.854;2024-03-23T12:46:42;5.97;;;2.30;;
2452;SDS011;63678;47.994;7.854;2024-03-23T12:49:14;6.90;;;2.22;;
2452;SDS011;63678;47.994;7.854;2024-03-23T12:52:28;8.60;;;2.45;;
2452;SDS011;63678;47.994;7.854;2024-03-23T12:55:00;7.65;;;2.60;;
2452;SDS011;63678;47.994;7.854;2024-03-23T12:57:32;6.90;;;2.33;;
2452;SDS011;63678;47.994;7.854;2024-03-23T13:00:04;6.20;;;2.20;;
2452;SDS011;63678;47.994;7.854;2024-03-23T13:02:37;5.85;;;2.00;;
2452;SDS011;63678;47.994;7.854;2024-03-23T13:05:09;8.77;;;2.30;;
2452;SDS011;63678;47.994;7.854;2024-03-23T13:07:41;7.82;;;2.70;;
2452;SDS011;63678;47.994;7.854;2024-03-23T13:10:13;10.60;;;2.90;;
2452;SDS011;63678;47.994;7.854;2024-03-23T13:12:45;6.60;;;2.30;;
2452;SDS011;63678;47.994;7.854;2024-03-23T13:15:17;8.63;;;2.55;;
2452;SDS011;63678;47.994;7.854;2024-03-23T13:17:50;9.93;;;2.88;;
2452;SDS011;63678;47.994;7.854;2024-03-23T13:20:23;7.95;;;2.33;;
2452;SDS011;63678;47.994;7.854;2024-03-23T13:22:54;12.82;;;3.17;;
2452;SDS011;63678;47.994;7.854;2024-03-23T13:25:26;14.80;;;2.90;;
2452;SDS011;63678;47.994;7.854;2024-03-23T13:27:58;9.25;;;2.28;;
2452;SDS011;63678;47.994;7.854;2024-03-23T13:30:30;7.80;;;2.20;;
2452;SDS011;63678;47.994;7.854;2024-03-23T13:33:01;6.65;;;2.33;;
2452;SDS011;63678;47.994;7.854;2024-03-23T13:35:33;7.88;;;2.33;;
2452;SDS011;63678;47.994;7.854;2024-03-23T13:38:04;6.77;;;2.03;;
2452;SDS011;63678;47.994;7.854;2024-03-23T13:40:36;11.18;;;2.55;;
2452;SDS011;63678;47.994;7.854;2024-03-23T13:43:09;7.60;;;2.42;;
2452;SDS011;63678;47.994;7.854;2024-03-23T13:45:41;6.72;;;2.33;;
2452;SDS011;63678;47.994;7.854;2024-03-23T13:48:14;7.32;;;2.05;;
2452;SDS011;63678;47.994;7.854;2024-03-23T13:50:57;7.53;;;2.77;;
2452;SDS011;63678;47.994;7.854;2024-03-23T13:53:30;9.52;;;2.33;;
2452;SDS011;63678;47.994;7.854;2024-03-23T13:56:03;6.70;;;2.10;;
2452;SDS011;63678;47.994;7.854;2024-03-23T13:58:35;4.63;;;1.85;;
2452;SDS011;63678;47.994;7.854;2024-03-23T14:01:07;7.45;;;2.08;;
2452;SDS011;63678;47.994;7.854;2024-03-23T14:03:38;6.00;;;1.93;;
2452;SDS011;63678;47.994;7.854;2024-03-23T14:06:11;5.55;;;1.95;;
2452;SDS011;63678;47.994;7.854;2024-03-23T14:08:43;5.88;;;1.90;;
2452;SDS011;63678;47.994;7.854;2024-03-23T14:11:14;4.40;;;1.85;;
2452;SDS011;63678;47.994;7.854;2024-03-23T14:13:46;7.60;;;2.15;;
2452;SDS011;63678;47.994;7.854;2024-03-23T14:16:18;5.00;;;1.70;;
2452;SDS011;63678;47.994;7.854;2024-03-23T14:18:49;10.23;;;2.42;;
2452;SDS011;63678;47.994;7.854;2024-03-23T14:21:21;7.68;;;2.13;;
2452;SDS011;63678;47.994;7.854;2024-03-23T14:23:53;6.65;;;1.80;;
2452;SDS011;63678;47.994;7.854;2024-03-23T14:26:25;8.30;;;2.22;;
2452;SDS011;63678;47.994;7.854;2024-03-23T14:28:57;6.73;;;1.80;;
2452;SDS011;63678;47.994;7.854;2024-03-23T14:31:29;8.00;;;1.88;;
2452;SDS011;63678;47.994;7.854;2024-03-23T14:34:01;4.82;;;2.00;;
2452;SDS011;63678;47.994;7.854;2024-03-23T14:36:33;7.65;;;2.33;;
2452;SDS011;63678;47.994;7.854;2024-03-23T14:39:04;5.70;;;2.00;;
2452;SDS011;63678;47.994;7.854;2024-03-23T14:41:37;13.50;;;2.10;;
2452;SDS011;63678;47.994;7.854;2024-03-23T14:44:09;6.75;;;1.63;;
2452;SDS011;63678;47.994;7.854;2024-03-23T14:46:40;5.80;;;1.75;;
2452;SDS011;63678;47.994;7.854;2024-03-23T14:49:14;3.50;;;1.70;;
2452;SDS011;63678;47.994;7.854;2024-03-23T14:51:49;4.88;;;1.50;;
2452;SDS011;63678;47.994;7.854;2024-03-23T14:54:21;6.43;;;1.60;;
2452;SDS011;63678;47.994;7.854;2024-03-23T14:56:52;5.10;;;1.40;;
2452;SDS011;63678;47.994;7.854;2024-03-23T14:59:24;5.70;;;1.88;;
2452;SDS011;63678;47.994;7.854;2024-03-23T15:01:57;4.55;;;1.60;;
2452;SDS011;63678;47.994;7.854;2024-03-23T15:04:29;5.45;;;1.98;;
2452;SDS011;63678;47.994;7.854;2024-03-23T15:07:01;4.57;;;1.80;;
2452;SDS011;63678;47.994;7.854;2024-03-23T15:09:32;6.70;;;1.98;;
2452;SDS011;63678;47.994;7.854;2024-03-23T15:12:04;6.07;;;1.67;;
2452;SDS011;63678;47.994;7.854;2024-03-23T15:14:36;4.45;;;1.48;;
2452;SDS011;63678;47.994;7.854;2024-03-23T15:17:08;5.03;;;2.25;;
2452;SDS011;63678;47.994;7.854;2024-03-23T15:19:58;8.17;;;1.80;;
2452;SDS011;63678;47.994;7.854;2024-03-23T15:22:30;4.70;;;1.65;;
2452;SDS011;63678;47.994;7.854;2024-03-23T15:25:02;8.73;;;1.90;;
2452;SDS011;63678;47.994;7.854;2024-03-23T15:27:33;5.80;;;1.92;;
2452;SDS011;63678;47.994;7.854;2024-03-23T15:30:05;4.07;;;1.60;;
2452;SDS011;63678;47.994;7.854;2024-03-23T15:32:37;7.57;;;1.87;;
2452;SDS011;63678;47.994;7.854;2024-03-23T15:35:09;4.68;;;1.88;;
2452;SDS011;63678;47.994;7.854;2024-03-23T15:37:40;7.07;;;2.03;;
2452;SDS011;63678;47.994;7.854;2024-03-23T15:40:12;5.28;;;1.70;;
2452;SDS011;63678;47.994;7.854;2024-03-23T15:42:44;6.95;;;1.80;;
2452;SDS011;63678;47.994;7.854;2024-03-23T15:45:15;6.57;;;1.77;;
2452;SDS011;63678;47.994;7.854;2024-03-23T15:47:47;7.53;;;2.03;;
2452;SDS011;63678;47.994;7.854;2024-03-23T15:50:20;5.20;;;2.10;;
2452;SDS011;63678;47.994;7.854;2024-03-23T15:52:51;4.75;;;1.70;;
2452;SDS011;63678;47.994;7.854;2024-03-23T15:55:22;4.85;;;2.05;;
2452;SDS011;63678;47.994;7.854;2024-03-23T15:57:54;7.80;;;2.20;;
2452;SDS011;63678;47.994;7.854;2024-03-23T16:00:26;6.80;;;2.22;;
2452;SDS011;63678;47.994;7.854;2024-03-23T16:02:58;4.20;;;2.00;;
2452;SDS011;63678;47.994;7.854;2024-03-23T16:05:29;4.53;;;2.60;;
2452;SDS011;63678;47.994;7.854;2024-03-23T16:08:01;3.70;;;1.58;;
2452;SDS011;63678;47.994;7.854;2024-03-23T16:10:33;3.70;;;1.50;;
2452;SDS011;63678;47.994;7.854;2024-03-23T16:13:05;5.55;;;1.90;;
2452;SDS011;63678;47.994;7.854;2024-03-23T16:15:36;5.10;;;1.80;;
2452;SDS011;63678;47.994;7.854;2024-03-23T16:18:08;3.85;;;1.50;;
2452;SDS011;63678;47.994;7.854;2024-03-23T16:20:39;3.63;;;1.42;;
2452;SDS011;63678;47.994;7.854;2024-03-23T16:23:11;4.47;;;1.60;;
2452;SDS011;63678;47.994;7.854;2024-03-23T16:25:49;5.57;;;1.50;;
2452;SDS011;63678;47.994;7.854;2024-03-23T16:28:27;5.43;;;2.15;;
2452;SDS011;63678;47.994;7.854;2024-03-23T16:31:02;4.43;;;1.80;;